Time;durP1;ratioP1;P1;durP2;ratioP2;P2;SDS_P1;SDS_P2;PMS_P1;PMS_P2;Temp;Humidity;BMP_temperature;BMP_pressure;BME280_temperature;BME280_humidity;BME280_pressure;Samples;Min_cycle;Max_cycle;Signal;HPM_P1;HPM_P2
2020/12/19 00:02:13;;;;;;;17.83;16.13;;;5.10;99.90;;;;;;5053253;28;21016;-68
2020/12/19 00:04:39;;;;;;;17.50;15.70;;;5.10;99.90;;;;;;5057635;28;20464;-68
2020/12/19 00:07:05;;;;;;;17.10;15.20;;;5.00;99.90;;;;;;5061327;28;21095;-68
2020/12/19 00:09:32;;;;;;;19.23;17.23;;;5.10;99.90;;;;;;5057582;28;20939;-68
2020/12/19 00:11:58;;;;;;;16.83;15.23;;;5.10;99.90;;;;;;5054371;28;20448;-68
2020/12/19 00:14:25;;;;;;;18.63;16.83;;;5.00;99.90;;;;;;5053598;28;20479;-68
2020/12/19 00:16:52;;;;;;;21.47;17.60;;;5.00;99.90;;;;;;5053815;28;20535;-68
2020/12/19 00:19:18;;;;;;;19.67;16.73;;;5.00;99.90;;;;;;5053873;28;20589;-68
2020/12/19 00:21:44;;;;;;;18.77;17.03;;;5.00;99.90;;;;;;5054546;28;20981;-68
2020/12/19 00:24:10;;;;;;;19.63;17.73;;;5.00;99.90;;;;;;5053535;28;20472;-68
2020/12/19 00:26:38;;;;;;;19.93;17.93;;;4.90;99.90;;;;;;5053350;28;20448;-68
2020/12/19 00:29:05;;;;;;;21.03;18.80;;;4.90;99.90;;;;;;5053949;28;20451;-68
2020/12/19 00:31:33;;;;;;;19.47;17.57;;;4.90;99.90;;;;;;5054030;28;20444;-68
2020/12/19 00:34:00;;;;;;;20.83;18.10;;;4.80;99.90;;;;;;5052975;28;20464;-68
2020/12/19 00:36:26;;;;;;;19.87;17.87;;;4.80;99.90;;;;;;5052913;28;20483;-68
2020/12/19 00:38:52;;;;;;;21.77;19.47;;;4.80;99.90;;;;;;5052886;28;20452;-68
2020/12/19 00:41:20;;;;;;;20.87;18.70;;;4.80;99.90;;;;;;5052635;28;20486;-68
2020/12/19 00:43:47;;;;;;;20.43;18.37;;;4.70;99.90;;;;;;5052912;28;20986;-68
2020/12/19 00:46:14;;;;;;;20.17;18.30;;;4.80;99.90;;;;;;5052447;28;20451;-68
2020/12/19 00:48:42;;;;;;;20.33;18.33;;;4.80;99.90;;;;;;5052979;28;20845;-68
2020/12/19 00:51:12;;;;;;;22.17;19.97;;;4.70;99.90;;;;;;5052674;28;20547;-69
2020/12/19 00:53:39;;;;;;;20.50;18.33;;;4.70;99.90;;;;;;5051888;28;20530;-68
2020/12/19 00:56:06;;;;;;;19.13;17.20;;;4.70;99.90;;;;;;5052588;28;20486;-68
2020/12/19 00:58:32;;;;;;;19.90;17.80;;;4.70;99.90;;;;;;5052589;28;20454;-68
2020/12/19 01:00:58;;;;;;;21.73;19.60;;;4.60;99.90;;;;;;5052034;28;20462;-68
2020/12/19 01:03:25;;;;;;;20.83;18.80;;;4.60;99.90;;;;;;5052552;28;20846;-68
2020/12/19 01:05:52;;;;;;;21.50;19.20;;;4.70;99.90;;;;;;5052433;28;20452;-69
2020/12/19 01:08:18;;;;;;;21.37;19.27;;;4.60;99.90;;;;;;5052588;28;20455;-68
2020/12/19 01:10:44;;;;;;;20.03;17.90;;;4.70;99.90;;;;;;5052424;28;20955;-68
2020/12/19 01:13:11;;;;;;;22.10;19.07;;;4.60;99.90;;;;;;5052589;28;20865;-68
2020/12/19 01:15:37;;;;;;;25.10;22.60;;;4.60;99.90;;;;;;5051864;28;20487;-68
2020/12/19 01:18:03;;;;;;;22.60;20.40;;;4.50;99.90;;;;;;5052166;28;20455;-68
2020/12/19 01:20:29;;;;;;;22.07;19.20;;;4.60;99.90;;;;;;5051368;28;20955;-68
2020/12/19 01:22:56;;;;;;;22.83;20.47;;;4.60;99.90;;;;;;5052026;28;20866;-69
2020/12/19 01:25:23;;;;;;;23.27;21.07;;;4.50;99.90;;;;;;5051998;28;20471;-69
2020/12/19 01:27:49;;;;;;;24.40;21.80;;;4.60;99.90;;;;;;5052007;28;20452;-69
2020/12/19 01:30:15;;;;;;;24.10;21.43;;;4.50;99.90;;;;;;5052119;28;20456;-69
2020/12/19 01:32:41;;;;;;;22.30;20.00;;;4.50;99.90;;;;;;5053269;28;20936;-69
2020/12/19 01:35:08;;;;;;;26.17;20.47;;;4.50;99.90;;;;;;5054052;28;20491;-69
2020/12/19 01:37:34;;;;;;;24.60;21.30;;;4.50;99.90;;;;;;5054124;28;20447;-69
2020/12/19 01:40:01;;;;;;;22.80;20.40;;;4.50;99.90;;;;;;5055177;28;20452;-69
2020/12/19 01:42:27;;;;;;;23.30;20.83;;;4.50;99.90;;;;;;5055288;28;20443;-69
2020/12/19 01:44:53;;;;;;;23.60;21.30;;;4.40;99.90;;;;;;5054431;28;20475;-69
2020/12/19 01:47:22;;;;;;;24.80;22.20;;;4.40;99.90;;;;;;5053113;28;20447;-69
2020/12/19 01:49:49;;;;;;;24.90;22.00;;;4.40;99.90;;;;;;5051651;28;20556;-69
2020/12/19 01:52:20;;;;;;;29.80;22.93;;;4.40;99.90;;;;;;5052161;28;20444;-69
2020/12/19 01:54:48;;;;;;;23.27;20.80;;;4.50;99.90;;;;;;5052300;28;20486;-69
2020/12/19 01:57:18;;;;;;;24.70;22.10;;;4.50;99.90;;;;;;5053019;28;20454;-69
2020/12/19 01:59:45;;;;;;;25.57;22.87;;;4.40;99.90;;;;;;5053140;28;20480;-69
2020/12/19 02:02:12;;;;;;;30.03;24.90;;;4.40;99.90;;;;;;5063320;28;20802;-70
2020/12/19 02:04:38;;;;;;;23.93;21.40;;;4.50;99.90;;;;;;5073038;28;20498;-69
2020/12/19 02:07:05;;;;;;;25.87;23.07;;;4.40;99.90;;;;;;5073848;28;20454;-69
2020/12/19 02:09:35;;;;;;;26.67;23.53;;;4.50;99.90;;;;;;5074260;28;20442;-69
2020/12/19 02:12:02;;;;;;;26.13;23.43;;;4.50;99.90;;;;;;5073774;28;20454;-68
2020/12/19 02:14:30;;;;;;;25.97;23.27;;;4.50;99.90;;;;;;5072329;28;20544;-69
2020/12/19 02:16:58;;;;;;;27.70;23.90;;;4.50;99.90;;;;;;5072240;28;20477;-69
2020/12/19 02:19:24;;;;;;;26.60;23.83;;;4.50;99.90;;;;;;5072421;28;20438;-69
2020/12/19 02:21:51;;;;;;;30.90;24.00;;;4.50;99.90;;;;;;5071530;28;20444;-69
2020/12/19 02:24:18;;;;;;;29.33;25.87;;;4.50;99.90;;;;;;5071385;28;20467;-69
2020/12/19 02:26:48;;;;;;;27.00;24.00;;;4.60;99.90;;;;;;5048814;28;20449;-69
2020/12/19 02:29:14;;;;;;;27.13;23.13;;;4.50;99.90;;;;;;5036718;28;20453;-69
2020/12/19 02:31:41;;;;;;;25.87;23.07;;;4.50;99.90;;;;;;5051331;28;20454;-68
2020/12/19 02:34:08;;;;;;;28.80;23.53;;;4.50;99.90;;;;;;5051200;28;20489;-69
2020/12/19 02:36:34;;;;;;;29.50;24.60;;;4.50;99.90;;;;;;5051255;28;20856;-69
2020/12/19 02:39:00;;;;;;;29.70;25.63;;;4.50;99.90;;;;;;5051308;28;20455;-69
2020/12/19 02:41:28;;;;;;;32.20;25.67;;;4.50;99.90;;;;;;5051033;28;20466;-69
2020/12/19 02:43:55;;;;;;;32.17;26.50;;;4.40;99.90;;;;;;5051399;28;21013;-69
2020/12/19 02:46:22;;;;;;;31.80;27.47;;;4.40;99.90;;;;;;5051053;28;20458;-69
2020/12/19 02:48:48;;;;;;;33.00;25.47;;;4.40;99.90;;;;;;5054472;28;20451;-69
2020/12/19 02:51:15;;;;;;;31.00;27.67;;;4.40;99.90;;;;;;5055511;28;20450;-69
2020/12/19 02:53:41;;;;;;;31.53;28.07;;;4.40;99.90;;;;;;5056306;28;20998;-68
2020/12/19 02:56:08;;;;;;;27.60;24.50;;;4.40;99.90;;;;;;5066135;28;20486;-69
2020/12/19 02:58:35;;;;;;;32.03;27.23;;;4.40;99.90;;;;;;5070857;28;20539;-69
2020/12/19 03:01:01;;;;;;;30.73;26.30;;;4.40;99.90;;;;;;5064800;28;20534;-68
2020/12/19 03:03:27;;;;;;;31.13;27.40;;;4.50;99.90;;;;;;5056377;28;20448;-68
2020/12/19 03:05:54;;;;;;;31.70;27.20;;;4.50;99.90;;;;;;5054734;28;20454;-68
2020/12/19 03:08:20;;;;;;;33.23;29.63;;;4.40;99.90;;;;;;5054673;28;20493;-68
2020/12/19 03:10:47;;;;;;;33.30;29.17;;;4.50;99.90;;;;;;5054247;28;20493;-69
2020/12/19 03:13:13;;;;;;;32.87;26.47;;;4.50;99.90;;;;;;5054206;28;20452;-69
2020/12/19 03:15:41;;;;;;;33.87;28.67;;;4.40;99.90;;;;;;5053939;28;20545;-69
2020/12/19 03:18:07;;;;;;;35.33;28.77;;;4.40;99.90;;;;;;5054159;28;20456;-69
2020/12/19 03:20:33;;;;;;;33.87;28.07;;;4.40;99.90;;;;;;5054367;28;20943;-69
2020/12/19 03:22:59;;;;;;;32.40;28.40;;;4.40;99.90;;;;;;5054251;28;20815;-69
2020/12/19 03:25:26;;;;;;;34.87;28.47;;;4.40;99.90;;;;;;5058248;28;20482;-69
2020/12/19 03:27:53;;;;;;;31.97;27.60;;;4.40;99.90;;;;;;5061733;28;20452;-69
2020/12/19 03:30:19;;;;;;;32.37;26.60;;;4.40;99.90;;;;;;5058036;28;20448;-69
2020/12/19 03:32:46;;;;;;;36.77;29.80;;;4.40;99.90;;;;;;5054522;28;20439;-69
2020/12/19 03:35:13;;;;;;;34.90;28.90;;;4.40;99.90;;;;;;5054010;28;20974;-69
2020/12/19 03:37:39;;;;;;;35.20;30.80;;;4.40;99.90;;;;;;5054159;28;20830;-69
2020/12/19 03:40:05;;;;;;;35.43;29.50;;;4.40;99.90;;;;;;5053887;28;20448;-69
2020/12/19 03:42:31;;;;;;;36.77;30.33;;;4.50;99.90;;;;;;5053499;28;20859;-69
2020/12/19 03:44:58;;;;;;;41.10;30.00;;;4.40;99.90;;;;;;5053493;28;20471;-69
2020/12/19 03:47:24;;;;;;;41.47;32.93;;;4.40;99.90;;;;;;5053636;28;20455;-69
2020/12/19 03:49:51;;;;;;;36.03;31.53;;;4.50;99.90;;;;;;5054033;28;20455;-69
2020/12/19 03:52:17;;;;;;;39.90;31.50;;;4.40;99.90;;;;;;5053876;28;20448;-69
2020/12/19 03:54:44;;;;;;;37.17;32.70;;;4.40;99.90;;;;;;5053565;28;20468;-68
2020/12/19 03:57:10;;;;;;;36.40;31.40;;;4.40;99.90;;;;;;5053401;28;20455;-69
2020/12/19 03:59:36;;;;;;;37.77;30.87;;;4.50;99.90;;;;;;5052927;28;20454;-68
2020/12/19 04:02:03;;;;;;;38.60;31.60;;;4.50;99.90;;;;;;5053250;28;20444;-68
2020/12/19 04:04:29;;;;;;;38.30;34.20;;;4.50;99.90;;;;;;5053325;28;20467;-68
2020/12/19 04:06:56;;;;;;;41.60;37.17;;;4.40;99.90;;;;;;5053142;28;20452;-69
2020/12/19 04:09:22;;;;;;;41.80;37.50;;;4.40;99.90;;;;;;5053206;28;20454;-68
2020/12/19 04:11:49;;;;;;;38.60;34.40;;;4.30;99.90;;;;;;5053273;28;20440;-69
2020/12/19 04:14:15;;;;;;;39.73;35.40;;;4.30;99.90;;;;;;5052364;28;20529;-69
2020/12/19 04:16:41;;;;;;;43.23;37.63;;;4.30;99.90;;;;;;5052723;28;20851;-69
2020/12/19 04:19:07;;;;;;;45.60;37.87;;;4.40;99.90;;;;;;5053213;28;20448;-70
2020/12/19 04:21:34;;;;;;;44.63;39.10;;;4.40;99.90;;;;;;5053468;28;20458;-69
2020/12/19 04:24:01;;;;;;;42.80;36.40;;;4.40;99.90;;;;;;5052864;28;20479;-69
2020/12/19 04:26:27;;;;;;;45.80;39.77;;;4.40;99.90;;;;;;5052675;28;20459;-69
2020/12/19 04:28:53;;;;;;;43.70;37.10;;;4.40;99.90;;;;;;5052721;28;20448;-69
2020/12/19 04:31:19;;;;;;;43.13;38.20;;;4.40;99.90;;;;;;5052798;28;20452;-69
2020/12/19 04:33:46;;;;;;;50.00;44.67;;;4.40;99.90;;;;;;5052616;28;20476;-68
2020/12/19 04:36:12;;;;;;;44.20;39.27;;;4.50;99.90;;;;;;5052727;28;20489;-69
2020/12/19 04:38:38;;;;;;;43.27;37.77;;;4.40;99.90;;;;;;5052129;28;21104;-69
2020/12/19 04:41:05;;;;;;;47.90;39.50;;;4.40;99.90;;;;;;5052056;28;20802;-68
2020/12/19 04:43:33;;;;;;;45.33;40.33;;;4.30;99.90;;;;;;5052355;28;20817;-69
2020/12/19 04:46:01;;;;;;;45.97;38.67;;;4.40;99.90;;;;;;5052676;28;20439;-68
2020/12/19 04:48:28;;;;;;;46.23;41.23;;;4.30;99.90;;;;;;5052611;28;20451;-68
2020/12/19 04:50:54;;;;;;;45.20;40.30;;;4.40;99.90;;;;;;5051953;28;20866;-68
2020/12/19 04:53:21;;;;;;;43.90;39.10;;;4.40;99.90;;;;;;5052249;28;20501;-68
2020/12/19 04:55:48;;;;;;;45.87;41.00;;;4.30;99.90;;;;;;5051807;28;20475;-68
2020/12/19 04:58:18;;;;;;;45.10;37.20;;;4.40;99.90;;;;;;5052093;28;20452;-68
2020/12/19 05:00:44;;;;;;;45.93;39.33;;;4.30;99.90;;;;;;5052510;28;20852;-68
2020/12/19 05:03:10;;;;;;;47.70;40.40;;;4.30;99.90;;;;;;5052309;28;20824;-68
2020/12/19 05:05:41;;;;;;;46.23;41.17;;;4.40;99.90;;;;;;5052004;28;20462;-69
2020/12/19 05:08:07;;;;;;;49.20;40.30;;;4.40;99.90;;;;;;5052169;28;20460;-68
2020/12/19 05:10:33;;;;;;;46.70;39.97;;;4.40;99.90;;;;;;5051911;28;20459;-68
2020/12/19 05:13:00;;;;;;;51.03;41.40;;;4.40;99.90;;;;;;5051843;28;20530;-68
2020/12/19 05:15:27;;;;;;;48.97;39.83;;;4.50;99.90;;;;;;5051522;28;20533;-68
2020/12/19 05:17:54;;;;;;;46.00;39.07;;;4.50;99.90;;;;;;5052371;28;20451;-68
2020/12/19 05:20:21;;;;;;;49.77;40.90;;;4.40;99.90;;;;;;5052405;28;20447;-68
2020/12/19 05:22:49;;;;;;;48.67;40.47;;;4.50;99.90;;;;;;5051621;28;20825;-68
2020/12/19 05:25:16;;;;;;;49.73;41.03;;;4.50;99.90;;;;;;5051663;28;20820;-68
2020/12/19 05:27:43;;;;;;;51.47;41.40;;;4.50;99.90;;;;;;5051820;28;20977;-68
2020/12/19 05:30:10;;;;;;;50.77;40.23;;;4.50;99.90;;;;;;5051608;28;20456;-69
2020/12/19 05:32:43;;;;;;;47.67;38.37;;;4.60;99.90;;;;;;5051488;28;21013;-68
2020/12/19 05:35:09;;;;;;;49.97;40.53;;;4.50;99.90;;;;;;5051340;28;20836;-68
2020/12/19 05:37:35;;;;;;;49.60;41.93;;;4.50;99.90;;;;;;5051816;28;20977;-68
2020/12/19 05:40:08;;;;;;;49.90;42.13;;;4.60;99.90;;;;;;5051934;28;20448;-68
2020/12/19 05:42:34;;;;;;;53.57;42.73;;;4.60;99.90;;;;;;5051745;28;20440;-68
2020/12/19 05:45:00;;;;;;;48.33;41.30;;;4.50;99.90;;;;;;5051154;28;20837;-69
2020/12/19 05:47:27;;;;;;;50.00;41.77;;;4.60;99.90;;;;;;5051082;28;20454;-68
2020/12/19 05:49:54;;;;;;;52.37;43.30;;;4.60;99.90;;;;;;5052021;28;20447;-69
2020/12/19 05:52:23;;;;;;;52.03;41.03;;;4.60;99.90;;;;;;5051837;28;20508;-69
2020/12/19 05:54:53;;;;;;;51.30;39.20;;;4.60;99.90;;;;;;5051621;28;20475;-68
2020/12/19 05:57:20;;;;;;;46.73;39.20;;;4.60;99.90;;;;;;5051543;28;20455;-68
2020/12/19 05:59:48;;;;;;;50.00;41.77;;;4.60;99.90;;;;;;5051890;28;20451;-69
2020/12/19 06:02:17;;;;;;;47.63;40.33;;;4.60;99.90;;;;;;5051005;28;20966;-68
2020/12/19 06:04:46;;;;;;;50.50;40.00;;;4.60;99.90;;;;;;5051698;28;20464;-68
2020/12/19 06:07:14;;;;;;;45.87;39.07;;;4.60;99.90;;;;;;5051731;28;20443;-68
2020/12/19 06:09:41;;;;;;;42.10;37.50;;;4.60;99.90;;;;;;5051841;28;20452;-68
2020/12/19 06:12:13;;;;;;;46.87;39.97;;;4.50;99.90;;;;;;5051738;28;20440;-68
2020/12/19 06:14:41;;;;;;;51.47;38.97;;;4.50;99.90;;;;;;5050814;28;20525;-68
2020/12/19 06:17:16;;;;;;;49.00;42.50;;;4.60;99.90;;;;;;5051109;28;20471;-68
2020/12/19 06:19:43;;;;;;;49.23;42.33;;;4.70;99.90;;;;;;5051812;28;20446;-68
2020/12/19 06:22:10;;;;;;;47.20;39.60;;;4.70;99.90;;;;;;5056357;23;20500;-66
2020/12/19 06:24:47;;;;;;;45.63;37.70;;;4.70;99.90;;;;;;5035641;28;20444;-65
2020/12/19 06:27:40;;;;;;;46.83;38.60;;;4.60;99.90;;;;;;5039395;28;20444;-67
2020/12/19 06:30:07;;;;;;;46.80;40.83;;;4.60;99.90;;;;;;5035635;28;20448;-66
2020/12/19 06:32:33;;;;;;;47.83;40.80;;;4.60;99.90;;;;;;5035988;28;20854;-66
2020/12/19 06:35:02;;;;;;;45.77;38.00;;;4.60;99.90;;;;;;5035011;28;20445;-66
2020/12/19 06:37:30;;;;;;;45.00;39.90;;;4.60;99.90;;;;;;5052155;28;20452;-66
2020/12/19 06:40:14;;;;;;;46.17;40.43;;;4.70;99.90;;;;;;5047429;28;20966;-66
2020/12/19 06:42:41;;;;;;;44.23;37.77;;;4.60;99.90;;;;;;5052384;28;21022;-65
2020/12/19 06:45:21;;;;;;;44.50;37.23;;;4.60;99.90;;;;;;5041068;28;20987;-65
2020/12/19 06:47:48;;;;;;;44.13;37.63;;;4.60;99.90;;;;;;5039698;28;20455;-65
2020/12/19 06:50:14;;;;;;;47.70;39.33;;;4.50;99.90;;;;;;5054693;28;20456;-65
2020/12/19 06:52:53;;;;;;;48.20;40.67;;;4.60;99.90;;;;;;5056275;28;20456;-65
2020/12/19 06:55:21;;;;;;;44.60;39.17;;;4.50;99.90;;;;;;5041752;28;20526;-65
2020/12/19 06:57:51;;;;;;;45.00;37.53;;;4.50;99.90;;;;;;5035858;28;20452;-65
2020/12/19 07:00:19;;;;;;;46.73;39.57;;;4.50;99.90;;;;;;5042675;28;20460;-65
2020/12/19 07:02:52;;;;;;;47.70;40.47;;;4.50;99.90;;;;;;5035199;28;20986;-66
2020/12/19 07:05:23;;;;;;;44.40;39.57;;;4.50;99.90;;;;;;5049068;28;20456;-65
2020/12/19 07:07:50;;;;;;;43.50;37.13;;;4.40;99.90;;;;;;5057127;28;20444;-66
2020/12/19 07:10:31;;;;;;;10.60;8.27;;;4.40;99.90;;;;;;5043197;28;20456;-70
2020/12/19 07:12:58;;;;;;;11.07;7.03;;;13.80;99.90;;;;;;5015579;28;20453;-67
2020/12/19 07:15:41;;;;;;;12.97;9.37;;;17.40;99.90;;;;;;5031875;28;20539;-66
2020/12/19 07:18:24;;;;;;;8.00;7.30;;;18.80;99.90;;;;;;5033121;28;20527;-66
2020/12/19 07:20:56;;;;;;;8.60;7.23;;;20.20;99.90;;;;;;5034631;28;20481;-67
2020/12/19 07:23:23;;;;;;;7.10;6.47;;;20.10;99.90;;;;;;5035053;28;20447;-67
2020/12/19 07:25:49;;;;;;;8.13;7.30;;;18.90;99.90;;;;;;5034792;28;20445;-67
2020/12/19 07:28:16;;;;;;;8.03;7.30;;;18.70;99.90;;;;;;5034501;28;20959;-66
2020/12/19 07:30:44;;;;;;;7.97;7.37;;;19.50;99.90;;;;;;5033878;28;20490;-67
2020/12/19 07:33:10;;;;;;;6.07;5.50;;;19.50;99.90;;;;;;5030998;28;20460;-67
2020/12/19 07:35:37;;;;;;;6.80;6.20;;;20.00;99.90;;;;;;5033019;28;21021;-68
2020/12/19 07:38:03;;;;;;;6.93;6.30;;;20.30;99.90;;;;;;5018887;28;20456;-67
2020/12/19 07:40:32;;;;;;;5.53;5.10;;;20.40;99.90;;;;;;5028944;28;20449;-67
2020/12/19 07:43:02;;;;;;;6.80;6.20;;;20.50;99.90;;;;;;5034589;28;20449;-67
2020/12/19 07:45:29;;;;;;;5.73;5.13;;;20.20;99.90;;;;;;5040577;28;20513;-67
2020/12/19 07:47:56;;;;;;;8.10;5.77;;;20.50;99.90;;;;;;5035278;28;20469;-67
2020/12/19 07:50:24;;;;;;;6.30;5.70;;;20.60;99.90;;;;;;5040570;28;20454;-67
2020/12/19 07:53:00;;;;;;;5.87;5.37;;;20.80;99.90;;;;;;5038313;28;20543;-67
2020/12/19 07:55:27;;;;;;;7.17;6.03;;;20.80;99.90;;;;;;5037324;28;20477;-67
2020/12/19 07:57:54;;;;;;;5.33;4.87;;;20.70;99.90;;;;;;5033138;28;20495;-67
2020/12/19 08:00:21;;;;;;;5.97;5.47;;;20.70;99.90;;;;;;5034226;28;20453;-67
2020/12/19 08:02:48;;;;;;;5.70;5.20;;;20.90;99.90;;;;;;5033091;28;20886;-67
2020/12/19 08:05:14;;;;;;;5.90;5.40;;;20.70;99.90;;;;;;5033969;28;20448;-67
2020/12/19 08:07:41;;;;;;;6.60;6.00;;;20.80;99.90;;;;;;5035170;28;20455;-67
2020/12/19 08:10:09;;;;;;;6.07;5.57;;;20.70;99.90;;;;;;5035520;28;20472;-67
2020/12/19 08:12:35;;;;;;;6.13;5.53;;;20.50;99.90;;;;;;5045236;28;20469;-69
2020/12/19 08:15:03;;;;;;;5.47;4.77;;;20.60;99.90;;;;;;5050084;28;20440;-67
2020/12/19 08:17:33;;;;;;;6.60;6.00;;;20.70;99.90;;;;;;5050171;28;20453;-67
2020/12/19 08:20:01;;;;;;;5.90;5.40;;;20.70;99.90;;;;;;5058869;28;20453;-67
2020/12/19 08:22:29;;;;;;;13.47;12.37;;;20.80;99.90;;;;;;5050543;28;20480;-67
2020/12/19 08:24:56;;;;;;;17.03;15.70;;;15.40;99.90;;;;;;5027302;28;20531;-64
2020/12/19 08:27:33;;;;;;;18.20;16.50;;;8.80;99.90;;;;;;5037843;28;20476;-63
2020/12/19 08:30:14;;;;;;;18.63;17.00;;;7.70;99.90;;;;;;5038715;28;20525;-69
2020/12/19 08:32:42;;;;;;;19.57;17.90;;;7.40;99.90;;;;;;5037847;28;20475;-68
2020/12/19 08:35:10;;;;;;;19.77;18.10;;;7.20;99.90;;;;;;5040723;28;20451;-66
2020/12/19 08:37:37;;;;;;;17.80;16.30;;;6.90;99.90;;;;;;5054118;28;20478;-70
2020/12/19 08:40:09;;;;;;;16.63;15.23;;;7.30;99.90;;;;;;5046752;28;20457;-66
2020/12/19 08:42:36;;;;;;;19.27;17.63;;;7.60;99.90;;;;;;5033539;28;20902;-67
2020/12/19 08:45:26;;;;;;;18.83;17.00;;;7.80;99.90;;;;;;5038566;28;20445;-69
2020/12/19 08:47:59;;;;;;;16.90;15.40;;;7.60;99.90;;;;;;5026062;28;20461;-68
2020/12/19 08:50:29;;;;;;;17.17;15.57;;;8.10;99.90;;;;;;5032419;28;20978;-65
2020/12/19 08:53:09;;;;;;;15.43;14.23;;;8.00;99.90;;;;;;5033807;28;20858;-66
2020/12/19 08:55:36;;;;;;;17.27;15.77;;;8.20;99.90;;;;;;5038909;28;20487;-66
2020/12/19 08:58:03;;;;;;;16.30;14.90;;;8.60;99.90;;;;;;5032926;28;20451;-65
2020/12/19 09:00:34;;;;;;;16.67;15.17;;;8.70;99.90;;;;;;5036890;28;20452;-65
2020/12/19 09:03:03;;;;;;;15.43;14.07;;;8.70;99.90;;;;;;5036170;28;20458;-65
2020/12/19 09:05:32;;;;;;;14.33;13.23;;;8.60;99.90;;;;;;5035619;28;20510;-66
2020/12/19 09:07:59;;;;;;;16.63;15.23;;;8.80;99.90;;;;;;5036205;28;20452;-67
2020/12/19 09:10:29;;;;;;;15.70;14.27;;;9.10;99.90;;;;;;5033837;28;20445;-65
2020/12/19 09:13:21;;;;;;;14.90;13.60;;;8.80;99.90;;;;;;5033574;28;20449;-67
2020/12/19 09:15:49;;;;;;;12.87;10.90;;;9.40;99.90;;;;;;5031568;28;20519;-62
2020/12/19 09:18:21;;;;;;;13.77;12.67;;;10.20;99.90;;;;;;5031731;28;20465;-63
2020/12/19 09:20:51;;;;;;;16.50;14.93;;;9.70;99.90;;;;;;5031103;28;20839;-63
2020/12/19 09:23:18;;;;;;;15.90;14.50;;;9.70;99.90;;;;;;5032921;28;20452;-62
2020/12/19 09:25:45;;;;;;;13.47;12.27;;;10.20;99.90;;;;;;5040546;28;20814;-63
2020/12/19 09:28:11;;;;;;;15.70;14.30;;;10.90;99.90;;;;;;5030802;28;20460;-63
2020/12/19 09:30:38;;;;;;;14.70;13.50;;;10.40;99.90;;;;;;5031633;28;20468;-63
2020/12/19 09:33:04;;;;;;;15.10;13.80;;;11.60;99.90;;;;;;5032030;28;20820;-63
2020/12/19 09:35:31;;;;;;;14.10;12.83;;;11.70;99.90;;;;;;5030892;28;20523;-62
2020/12/19 09:37:58;;;;;;;14.70;13.40;;;11.80;99.90;;;;;;5031814;28;20463;-62
2020/12/19 09:40:25;;;;;;;15.20;13.70;;;12.10;99.90;;;;;;5043721;28;20505;-62
2020/12/19 09:42:52;;;;;;;10.77;9.73;;;11.90;99.90;;;;;;5048761;28;20448;-63
2020/12/19 09:45:18;;;;;;;14.20;12.10;;;12.50;99.90;;;;;;5045579;28;20452;-64
2020/12/19 09:47:45;;;;;;;11.80;10.60;;;13.40;99.90;;;;;;5049624;28;20443;-64
2020/12/19 09:50:12;;;;;;;13.10;11.80;;;14.20;99.90;;;;;;5033469;28;20804;-64
2020/12/19 09:52:39;;;;;;;11.93;10.87;;;14.50;99.90;;;;;;5049523;28;20472;-65
2020/12/19 09:55:07;;;;;;;13.07;11.97;;;15.20;99.90;;;;;;5036569;28;20944;-64
2020/12/19 09:57:34;;;;;;;12.90;11.80;;;15.20;99.90;;;;;;5036026;28;20541;-64
2020/12/19 10:00:00;;;;;;;14.00;12.90;;;14.00;99.90;;;;;;5035825;28;20821;-62
2020/12/19 10:02:26;;;;;;;15.40;14.20;;;13.70;99.90;;;;;;5041648;28;20975;-62
2020/12/19 10:04:53;;;;;;;14.47;13.20;;;12.30;99.90;;;;;;5041612;28;20449;-62
2020/12/19 10:07:19;;;;;;;13.70;12.60;;;13.00;99.90;;;;;;5036555;28;20453;-62
2020/12/19 10:09:45;;;;;;;14.30;13.10;;;13.40;99.90;;;;;;5035948;28;20497;-62
2020/12/19 10:12:12;;;;;;;13.97;12.77;;;13.40;99.90;;;;;;5035577;28;20472;-62
2020/12/19 10:14:39;;;;;;;13.83;12.67;;;13.50;99.90;;;;;;5035697;28;20452;-62
2020/12/19 10:17:05;;;;;;;14.60;13.30;;;13.20;99.90;;;;;;5035911;28;20500;-62
2020/12/19 10:19:32;;;;;;;13.80;12.70;;;13.80;99.90;;;;;;5035424;28;20475;-62
2020/12/19 10:21:59;;;;;;;14.57;13.37;;;13.80;99.90;;;;;;5034968;28;20900;-63
2020/12/19 10:24:25;;;;;;;14.43;13.13;;;13.00;99.90;;;;;;5035288;28;20453;-62
2020/12/19 10:26:51;;;;;;;12.70;11.70;;;13.20;99.90;;;;;;5035971;28;20474;-62
2020/12/19 10:29:18;;;;;;;14.03;12.93;;;14.30;99.90;;;;;;5035658;28;20844;-62
2020/12/19 10:31:45;;;;;;;13.03;11.93;;;13.70;99.90;;;;;;5035580;28;20483;-62
2020/12/19 10:34:11;;;;;;;13.73;12.53;;;13.70;99.90;;;;;;5034924;28;20455;-62
2020/12/19 10:36:37;;;;;;;13.83;12.63;;;13.70;99.90;;;;;;5015675;28;20486;-62
2020/12/19 10:39:04;;;;;;;12.93;11.90;;;14.60;99.90;;;;;;5015643;28;20445;-62
2020/12/19 10:41:31;;;;;;;12.07;10.97;;;14.10;99.90;;;;;;5015290;28;20481;-62
2020/12/19 10:43:57;;;;;;;13.73;12.60;;;15.20;99.90;;;;;;5014839;28;20990;-62
2020/12/19 10:46:25;;;;;;;13.83;12.63;;;15.70;99.90;;;;;;5015493;28;20812;-62
2020/12/19 10:48:52;;;;;;;14.50;13.40;;;15.00;99.90;;;;;;5015373;28;20446;-62
2020/12/19 10:51:25;;;;;;;13.10;12.10;;;15.50;99.90;;;;;;5031936;28;20473;-64
2020/12/19 10:53:51;;;;;;;13.60;12.50;;;16.20;99.90;;;;;;5034483;28;20433;-64
2020/12/19 10:56:18;;;;;;;12.43;11.43;;;15.40;99.90;;;;;;5034934;28;20480;-62
2020/12/19 10:58:44;;;;;;;11.80;10.90;;;15.60;99.90;;;;;;5034938;28;20498;-63
2020/12/19 11:01:11;;;;;;;13.67;12.57;;;15.40;99.90;;;;;;5034653;28;20793;-62
2020/12/19 11:03:38;;;;;;;12.53;11.53;;;15.00;99.90;;;;;;5034757;28;20494;-62
2020/12/19 11:06:04;;;;;;;13.67;12.57;;;15.80;99.90;;;;;;5034415;28;20849;-62
2020/12/19 11:08:30;;;;;;;13.03;11.93;;;15.30;99.90;;;;;;5034323;28;20448;-64
2020/12/19 11:10:57;;;;;;;12.37;11.37;;;15.90;99.90;;;;;;5034482;28;20464;-64
2020/12/19 11:13:23;;;;;;;13.10;12.10;;;15.60;99.90;;;;;;5034195;28;20445;-64
2020/12/19 11:15:49;;;;;;;13.40;12.23;;;15.50;99.90;;;;;;5033927;28;20525;-64
2020/12/19 11:18:15;;;;;;;15.73;12.50;;;15.40;99.90;;;;;;5034193;28;20962;-64
2020/12/19 11:20:42;;;;;;;13.77;12.67;;;15.90;99.90;;;;;;5033150;28;20995;-64
2020/12/19 11:23:09;;;;;;;14.27;13.07;;;16.00;99.90;;;;;;5034136;28;20813;-64
2020/12/19 11:25:35;;;;;;;13.60;12.50;;;15.40;99.90;;;;;;5033987;28;21026;-64
2020/12/19 11:28:01;;;;;;;13.30;12.20;;;15.30;99.90;;;;;;5034083;28;20830;-64
2020/12/19 11:30:27;;;;;;;12.43;11.43;;;16.00;99.90;;;;;;5034187;28;20448;-64
2020/12/19 11:32:54;;;;;;;12.93;11.83;;;15.70;99.90;;;;;;5033927;28;20506;-64
2020/12/19 11:35:20;;;;;;;12.70;11.70;;;16.10;99.90;;;;;;5033872;28;20449;-62
2020/12/19 11:37:47;;;;;;;13.50;12.30;;;15.70;99.90;;;;;;5034555;28;20449;-62
2020/12/19 11:40:13;;;;;;;12.50;11.50;;;15.40;99.90;;;;;;5034656;28;21010;-62
2020/12/19 11:42:40;;;;;;;13.53;12.43;;;16.00;99.90;;;;;;5034148;28;20465;-62
2020/12/19 11:45:06;;;;;;;12.50;11.50;;;15.50;99.90;;;;;;5034222;28;20475;-65
2020/12/19 11:47:33;;;;;;;12.67;11.60;;;15.80;99.90;;;;;;5034198;28;20862;-64
2020/12/19 11:49:59;;;;;;;13.10;12.00;;;16.10;99.90;;;;;;5033604;28;20449;-64
2020/12/19 11:52:26;;;;;;;13.10;11.90;;;16.90;99.90;;;;;;5033447;28;20484;-64
2020/12/19 11:54:53;;;;;;;12.97;11.83;;;16.10;99.90;;;;;;5033285;28;20467;-64
2020/12/19 11:57:19;;;;;;;12.47;11.37;;;16.70;99.90;;;;;;5034058;28;20642;-64
2020/12/19 11:59:45;;;;;;;12.27;11.17;;;17.00;99.90;;;;;;5033819;28;20453;-64
2020/12/19 12:02:11;;;;;;;13.17;11.97;;;16.40;99.90;;;;;;5033565;28;20464;-64
2020/12/19 12:04:38;;;;;;;13.47;12.37;;;16.40;99.90;;;;;;5033028;28;20460;-64
2020/12/19 12:07:04;;;;;;;13.67;12.60;;;15.90;99.90;;;;;;5033525;28;20444;-64
2020/12/19 12:09:30;;;;;;;12.90;11.80;;;15.60;99.90;;;;;;5033144;28;20793;-64
2020/12/19 12:12:02;;;;;;;13.23;12.20;;;16.00;99.90;;;;;;5033128;28;20464;-63
2020/12/19 12:14:28;;;;;;;13.17;12.07;;;15.50;99.90;;;;;;5033065;28;20452;-62
2020/12/19 12:16:54;;;;;;;14.20;13.10;;;15.80;99.90;;;;;;5033391;28;20490;-62
2020/12/19 12:19:20;;;;;;;13.77;12.37;;;15.80;99.90;;;;;;5033347;28;20452;-62
2020/12/19 12:21:47;;;;;;;12.73;11.57;;;15.90;99.90;;;;;;5033321;28;20991;-62
2020/12/19 12:24:13;;;;;;;12.47;11.47;;;16.60;99.90;;;;;;5033317;28;20441;-62
2020/12/19 12:26:39;;;;;;;12.13;11.13;;;15.80;99.90;;;;;;5032769;28;20445;-62
2020/12/19 12:29:07;;;;;;;13.40;12.30;;;15.60;99.90;;;;;;5033291;28;20451;-62
2020/12/19 12:31:35;;;;;;;12.43;11.43;;;15.80;99.90;;;;;;5032968;28;20468;-62
2020/12/19 12:34:02;;;;;;;11.80;10.70;;;17.00;99.90;;;;;;5033011;28;20460;-65
2020/12/19 12:36:30;;;;;;;12.80;11.70;;;16.40;99.90;;;;;;5032899;28;20484;-64
2020/12/19 12:38:57;;;;;;;13.50;12.47;;;15.80;99.90;;;;;;5033217;28;20451;-62